Terminal Aerodrome Forecast
Issued by NWS Northern Indiana

Home | Current Version | Previous Version | Text Only | Print | Product List | Glossary Off
Versions: 1 2 3 4 5 6 7 8 9 10 11 12 13 14 15 16 17 18 19

000
FTUS43 KIWX 021139
TAFFWA
TAF
KFWA 021139Z 0212/0312 02006KT 5SM BR OVC005
     FM021400 04008KT 5SM BR OVC008
     FM021900 05008KT P6SM OVC020
     FM030500 03005KT P6SM BKN050=

USA.gov is the U.S. government's official web portal to all federal, state and local government web resources and services.